sensor_id;sensor_type;location;lat;lon;timestamp;temperature;humidity
20594;DHT22;10455;48.732;10.266;2022-10-16T00:01:51;15.10;99.90
20594;DHT22;10455;48.732;10.266;2022-10-16T00:06:53;15.00;99.90
20594;DHT22;10455;48.732;10.266;2022-10-16T00:11:56;15.00;99.90
20594;DHT22;10455;48.732;10.266;2022-10-16T00:16:58;15.00;99.90
20594;DHT22;10455;48.732;10.266;2022-10-16T00:22:00;14.90;99.90
20594;DHT22;10455;48.732;10.266;2022-10-16T00:27:04;14.80;99.90
20594;DHT22;10455;48.732;10.266;2022-10-16T00:32:06;14.80;99.90
20594;DHT22;10455;48.732;10.266;2022-10-16T00:37:08;14.70;99.90
20594;DHT22;10455;48.732;10.266;2022-10-16T00:42:14;14.60;99.90
20594;DHT22;10455;48.732;10.266;2022-10-16T00:47:21;14.50;99.90
20594;DHT22;10455;48.732;10.266;2022-10-16T00:52:24;14.50;99.90
20594;DHT22;10455;48.732;10.266;2022-10-16T00:57:27;14.40;99.90
20594;DHT22;10455;48.732;10.266;2022-10-16T01:02:29;14.40;99.90
20594;DHT22;10455;48.732;10.266;2022-10-16T01:07:40;14.30;99.90
20594;DHT22;10455;48.732;10.266;2022-10-16T01:12:47;14.20;99.90
20594;DHT22;10455;48.732;10.266;2022-10-16T01:17:55;14.10;99.90
20594;DHT22;10455;48.732;10.266;2022-10-16T01:23:08;14.10;99.90
20594;DHT22;10455;48.732;10.266;2022-10-16T01:28:15;13.90;99.90
20594;DHT22;10455;48.732;10.266;2022-10-16T01:33:20;13.90;99.90
20594;DHT22;10455;48.732;10.266;2022-10-16T01:38:26;13.70;99.90
20594;DHT22;10455;48.732;10.266;2022-10-16T01:43:37;13.60;99.90
20594;DHT22;10455;48.732;10.266;2022-10-16T01:48:41;13.60;99.90
20594;DHT22;10455;48.732;10.266;2022-10-16T01:53:47;13.50;99.90
20594;DHT22;10455;48.732;10.266;2022-10-16T01:58:54;13.50;99.90
20594;DHT22;10455;48.732;10.266;2022-10-16T02:03:59;13.50;99.90
20594;DHT22;10455;48.732;10.266;2022-10-16T02:09:03;13.40;99.90
20594;DHT22;10455;48.732;10.266;2022-10-16T02:14:07;13.40;99.90
20594;DHT22;10455;48.732;10.266;2022-10-16T02:19:10;13.40;99.90
20594;DHT22;10455;48.732;10.266;2022-10-16T02:24:19;13.40;99.90
20594;DHT22;10455;48.732;10.266;2022-10-16T02:29:26;13.40;99.90
20594;DHT22;10455;48.732;10.266;2022-10-16T02:34:31;13.50;99.90
20594;DHT22;10455;48.732;10.266;2022-10-16T02:39:34;13.60;99.90
20594;DHT22;10455;48.732;10.266;2022-10-16T02:44:37;13.80;99.90
20594;DHT22;10455;48.732;10.266;2022-10-16T02:49:40;14.00;99.90
20594;DHT22;10455;48.732;10.266;2022-10-16T02:54:42;14.20;99.90
20594;DHT22;10455;48.732;10.266;2022-10-16T02:59:45;14.30;99.90
20594;DHT22;10455;48.732;10.266;2022-10-16T03:04:47;14.10;99.90
20594;DHT22;10455;48.732;10.266;2022-10-16T03:09:49;14.20;99.90
20594;DHT22;10455;48.732;10.266;2022-10-16T03:14:53;14.20;99.90
20594;DHT22;10455;48.732;10.266;2022-10-16T03:19:55;14.30;99.90
20594;DHT22;10455;48.732;10.266;2022-10-16T03:24:57;14.30;99.90
20594;DHT22;10455;48.732;10.266;2022-10-16T03:30:00;14.30;99.90
20594;DHT22;10455;48.732;10.266;2022-10-16T03:35:03;14.40;99.90
20594;DHT22;10455;48.732;10.266;2022-10-16T03:40:06;14.40;99.90
20594;DHT22;10455;48.732;10.266;2022-10-16T03:45:10;14.30;99.90
20594;DHT22;10455;48.732;10.266;2022-10-16T03:50:13;13.90;99.90
20594;DHT22;10455;48.732;10.266;2022-10-16T03:55:15;13.80;99.90
20594;DHT22;10455;48.732;10.266;2022-10-16T04:00:19;14.10;99.90
20594;DHT22;10455;48.732;10.266;2022-10-16T04:05:21;14.10;99.90
20594;DHT22;10455;48.732;10.266;2022-10-16T04:10:23;14.10;99.90
20594;DHT22;10455;48.732;10.266;2022-10-16T04:15:26;14.10;99.90
20594;DHT22;10455;48.732;10.266;2022-10-16T04:20:28;14.10;99.90
20594;DHT22;10455;48.732;10.266;2022-10-16T04:25:31;14.10;99.90
20594;DHT22;10455;48.732;10.266;2022-10-16T04:30:37;14.00;99.90
20594;DHT22;10455;48.732;10.266;2022-10-16T04:35:39;13.70;99.90
20594;DHT22;10455;48.732;10.266;2022-10-16T04:40:42;13.50;99.90
20594;DHT22;10455;48.732;10.266;2022-10-16T04:45:45;13.50;99.90
20594;DHT22;10455;48.732;10.266;2022-10-16T04:50:47;13.40;99.90
20594;DHT22;10455;48.732;10.266;2022-10-16T04:55:50;13.50;99.90
20594;DHT22;10455;48.732;10.266;2022-10-16T05:00:53;13.50;99.90
20594;DHT22;10455;48.732;10.266;2022-10-16T05:05:55;13.50;99.90
20594;DHT22;10455;48.732;10.266;2022-10-16T05:10:58;13.60;99.90
20594;DHT22;10455;48.732;10.266;2022-10-16T05:16:01;13.60;99.90
20594;DHT22;10455;48.732;10.266;2022-10-16T05:21:04;13.60;99.90
20594;DHT22;10455;48.732;10.266;2022-10-16T05:26:06;13.60;99.90
20594;DHT22;10455;48.732;10.266;2022-10-16T05:31:10;13.60;99.90
20594;DHT22;10455;48.732;10.266;2022-10-16T05:36:12;13.60;99.90
20594;DHT22;10455;48.732;10.266;2022-10-16T05:41:14;13.50;99.90
20594;DHT22;10455;48.732;10.266;2022-10-16T05:46:23;13.60;99.90
20594;DHT22;10455;48.732;10.266;2022-10-16T05:51:25;13.70;99.90
20594;DHT22;10455;48.732;10.266;2022-10-16T05:56:27;13.80;99.90
20594;DHT22;10455;48.732;10.266;2022-10-16T06:01:31;13.80;99.90
20594;DHT22;10455;48.732;10.266;2022-10-16T06:06:33;13.90;99.90
20594;DHT22;10455;48.732;10.266;2022-10-16T06:11:37;13.90;99.90
20594;DHT22;10455;48.732;10.266;2022-10-16T06:16:40;14.10;99.90
20594;DHT22;10455;48.732;10.266;2022-10-16T06:21:42;14.10;99.90
20594;DHT22;10455;48.732;10.266;2022-10-16T06:26:45;14.50;99.90
20594;DHT22;10455;48.732;10.266;2022-10-16T06:31:48;15.00;99.90
20594;DHT22;10455;48.732;10.266;2022-10-16T06:36:50;15.30;99.90
20594;DHT22;10455;48.732;10.266;2022-10-16T06:41:52;15.50;99.90
20594;DHT22;10455;48.732;10.266;2022-10-16T06:46:56;15.40;99.90
20594;DHT22;10455;48.732;10.266;2022-10-16T06:51:58;15.60;99.90
20594;DHT22;10455;48.732;10.266;2022-10-16T06:57:00;16.00;99.90
20594;DHT22;10455;48.732;10.266;2022-10-16T07:02:04;16.80;99.90
20594;DHT22;10455;48.732;10.266;2022-10-16T07:07:07;17.30;99.90
20594;DHT22;10455;48.732;10.266;2022-10-16T07:12:09;17.30;99.90
20594;DHT22;10455;48.732;10.266;2022-10-16T07:17:13;17.40;99.90
20594;DHT22;10455;48.732;10.266;2022-10-16T07:22:15;21.90;99.90
20594;DHT22;10455;48.732;10.266;2022-10-16T07:27:17;25.10;99.90
20594;DHT22;10455;48.732;10.266;2022-10-16T07:32:21;26.20;99.90
20594;DHT22;10455;48.732;10.266;2022-10-16T07:37:24;26.60;99.90
20594;DHT22;10455;48.732;10.266;2022-10-16T07:42:27;22.00;99.90
20594;DHT22;10455;48.732;10.266;2022-10-16T07:47:31;19.70;99.90
20594;DHT22;10455;48.732;10.266;2022-10-16T07:52:33;18.70;99.90
20594;DHT22;10455;48.732;10.266;2022-10-16T07:57:36;18.20;99.90
20594;DHT22;10455;48.732;10.266;2022-10-16T08:02:39;18.00;99.90
20594;DHT22;10455;48.732;10.266;2022-10-16T08:07:42;17.70;99.90
20594;DHT22;10455;48.732;10.266;2022-10-16T08:12:44;17.70;99.90
20594;DHT22;10455;48.732;10.266;2022-10-16T08:17:59;17.90;99.90
20594;DHT22;10455;48.732;10.266;2022-10-16T08:23:01;18.20;99.90
20594;DHT22;10455;48.732;10.266;2022-10-16T08:28:04;18.20;99.90
20594;DHT22;10455;48.732;10.266;2022-10-16T08:33:08;18.50;99.90
20594;DHT22;10455;48.732;10.266;2022-10-16T08:38:10;19.60;99.90
20594;DHT22;10455;48.732;10.266;2022-10-16T08:43:27;20.90;99.90
20594;DHT22;10455;48.732;10.266;2022-10-16T08:48:41;20.90;99.90
20594;DHT22;10455;48.732;10.266;2022-10-16T08:53:49;20.20;99.90
20594;DHT22;10455;48.732;10.266;2022-10-16T08:58:52;20.40;99.90
20594;DHT22;10455;48.732;10.266;2022-10-16T09:04:08;20.50;99.90
20594;DHT22;10455;48.732;10.266;2022-10-16T09:09:38;20.00;99.90
20594;DHT22;10455;48.732;10.266;2022-10-16T09:14:56;19.80;99.90
20594;DHT22;10455;48.732;10.266;2022-10-16T09:20:22;19.70;99.90
20594;DHT22;10455;48.732;10.266;2022-10-16T09:25:27;20.20;99.90
20594;DHT22;10455;48.732;10.266;2022-10-16T09:30:30;20.20;99.90
20594;DHT22;10455;48.732;10.266;2022-10-16T09:35:37;19.40;99.90
20594;DHT22;10455;48.732;10.266;2022-10-16T09:40:42;19.00;99.90
20594;DHT22;10455;48.732;10.266;2022-10-16T09:45:57;18.80;99.90
20594;DHT22;10455;48.732;10.266;2022-10-16T09:51:02;18.90;99.90
20594;DHT22;10455;48.732;10.266;2022-10-16T09:56:05;19.20;99.90
20594;DHT22;10455;48.732;10.266;2022-10-16T10:01:12;19.20;99.90
20594;DHT22;10455;48.732;10.266;2022-10-16T10:06:23;19.60;99.90
20594;DHT22;10455;48.732;10.266;2022-10-16T10:11:44;20.70;99.90
20594;DHT22;10455;48.732;10.266;2022-10-16T10:16:47;23.80;99.90
20594;DHT22;10455;48.732;10.266;2022-10-16T10:21:51;26.80;99.90
20594;DHT22;10455;48.732;10.266;2022-10-16T10:26:59;26.80;99.90
20594;DHT22;10455;48.732;10.266;2022-10-16T10:32:17;25.10;99.90
20594;DHT22;10455;48.732;10.266;2022-10-16T10:37:32;23.80;99.90
20594;DHT22;10455;48.732;10.266;2022-10-16T10:42:41;23.10;99.90
20594;DHT22;10455;48.732;10.266;2022-10-16T10:48:00;23.50;99.90
20594;DHT22;10455;48.732;10.266;2022-10-16T10:53:16;24.00;99.90
20594;DHT22;10455;48.732;10.266;2022-10-16T11:04:21;22.60;99.90
20594;DHT22;10455;48.732;10.266;2022-10-16T11:09:36;22.60;99.90
20594;DHT22;10455;48.732;10.266;2022-10-16T11:14:42;22.90;99.90
20594;DHT22;10455;48.732;10.266;2022-10-16T11:19:49;22.40;99.90
20594;DHT22;10455;48.732;10.266;2022-10-16T11:25:00;21.20;99.90
20594;DHT22;10455;48.732;10.266;2022-10-16T11:30:13;22.10;99.90
20594;DHT22;10455;48.732;10.266;2022-10-16T11:35:19;23.80;99.90
20594;DHT22;10455;48.732;10.266;2022-10-16T11:40:28;24.70;99.90
20594;DHT22;10455;48.732;10.266;2022-10-16T11:45:34;24.20;99.90
20594;DHT22;10455;48.732;10.266;2022-10-16T11:50:42;24.70;99.90
20594;DHT22;10455;48.732;10.266;2022-10-16T11:55:46;24.50;99.90
20594;DHT22;10455;48.732;10.266;2022-10-16T12:00:56;25.00;99.90
20594;DHT22;10455;48.732;10.266;2022-10-16T12:06:12;24.70;99.90
20594;DHT22;10455;48.732;10.266;2022-10-16T12:11:35;23.40;99.90
20594;DHT22;10455;48.732;10.266;2022-10-16T12:16:51;23.20;99.90
20594;DHT22;10455;48.732;10.266;2022-10-16T12:21:55;23.10;99.90
20594;DHT22;10455;48.732;10.266;2022-10-16T12:27:00;22.80;99.90
20594;DHT22;10455;48.732;10.266;2022-10-16T12:32:04;22.30;99.90
20594;DHT22;10455;48.732;10.266;2022-10-16T12:37:13;22.00;99.90
20594;DHT22;10455;48.732;10.266;2022-10-16T12:42:23;22.20;99.90
20594;DHT22;10455;48.732;10.266;2022-10-16T12:47:38;22.40;99.90
20594;DHT22;10455;48.732;10.266;2022-10-16T12:52:48;22.70;99.90
20594;DHT22;10455;48.732;10.266;2022-10-16T12:58:04;22.70;99.90
20594;DHT22;10455;48.732;10.266;2022-10-16T13:03:33;22.60;99.90
20594;DHT22;10455;48.732;10.266;2022-10-16T13:08:57;22.40;99.90
20594;DHT22;10455;48.732;10.266;2022-10-16T13:14:31;22.60;99.90
20594;DHT22;10455;48.732;10.266;2022-10-16T13:19:44;23.00;99.90
20594;DHT22;10455;48.732;10.266;2022-10-16T13:24:57;23.00;99.90
20594;DHT22;10455;48.732;10.266;2022-10-16T13:30:11;23.00;99.90
20594;DHT22;10455;48.732;10.266;2022-10-16T13:35:22;22.90;99.90
20594;DHT22;10455;48.732;10.266;2022-10-16T13:40:24;24.00;99.90
20594;DHT22;10455;48.732;10.266;2022-10-16T13:45:28;25.10;99.90
20594;DHT22;10455;48.732;10.266;2022-10-16T13:50:30;25.90;99.90
20594;DHT22;10455;48.732;10.266;2022-10-16T13:55:33;25.90;99.90
20594;DHT22;10455;48.732;10.266;2022-10-16T14:00:37;24.90;99.90
20594;DHT22;10455;48.732;10.266;2022-10-16T14:05:43;24.50;99.90
20594;DHT22;10455;48.732;10.266;2022-10-16T14:10:49;24.20;99.90
20594;DHT22;10455;48.732;10.266;2022-10-16T14:15:53;24.50;99.90
20594;DHT22;10455;48.732;10.266;2022-10-16T14:21:04;24.70;99.90
20594;DHT22;10455;48.732;10.266;2022-10-16T14:26:15;25.40;99.90
20594;DHT22;10455;48.732;10.266;2022-10-16T14:31:27;26.90;99.90
20594;DHT22;10455;48.732;10.266;2022-10-16T14:36:29;28.80;99.90
20594;DHT22;10455;48.732;10.266;2022-10-16T14:41:41;29.80;99.90
20594;DHT22;10455;48.732;10.266;2022-10-16T14:46:46;28.10;99.90
20594;DHT22;10455;48.732;10.266;2022-10-16T14:51:49;27.20;99.90
20594;DHT22;10455;48.732;10.266;2022-10-16T14:56:53;27.20;99.90
20594;DHT22;10455;48.732;10.266;2022-10-16T15:01:57;25.70;99.90
20594;DHT22;10455;48.732;10.266;2022-10-16T15:07:00;24.20;99.90
20594;DHT22;10455;48.732;10.266;2022-10-16T15:12:02;22.90;99.90
20594;DHT22;10455;48.732;10.266;2022-10-16T15:17:07;22.20;99.90
20594;DHT22;10455;48.732;10.266;2022-10-16T15:22:10;21.40;99.90
20594;DHT22;10455;48.732;10.266;2022-10-16T15:27:12;21.00;99.90
20594;DHT22;10455;48.732;10.266;2022-10-16T15:32:16;20.80;99.90
20594;DHT22;10455;48.732;10.266;2022-10-16T15:37:18;20.70;99.90
20594;DHT22;10455;48.732;10.266;2022-10-16T15:42:20;20.60;99.90
20594;DHT22;10455;48.732;10.266;2022-10-16T15:47:24;20.40;99.90
20594;DHT22;10455;48.732;10.266;2022-10-16T15:52:26;20.30;99.90
20594;DHT22;10455;48.732;10.266;2022-10-16T15:57:29;20.30;99.90
20594;DHT22;10455;48.732;10.266;2022-10-16T16:02:33;20.10;99.90
20594;DHT22;10455;48.732;10.266;2022-10-16T16:07:36;19.90;99.90
20594;DHT22;10455;48.732;10.266;2022-10-16T16:12:39;19.80;99.90
20594;DHT22;10455;48.732;10.266;2022-10-16T16:17:43;19.60;99.90
20594;DHT22;10455;48.732;10.266;2022-10-16T16:22:45;19.50;99.90
20594;DHT22;10455;48.732;10.266;2022-10-16T16:27:47;19.20;99.90
20594;DHT22;10455;48.732;10.266;2022-10-16T16:32:51;19.00;99.90
20594;DHT22;10455;48.732;10.266;2022-10-16T16:37:53;18.90;99.90
20594;DHT22;10455;48.732;10.266;2022-10-16T16:42:55;18.60;99.90
20594;DHT22;10455;48.732;10.266;2022-10-16T16:47:58;18.60;99.90
20594;DHT22;10455;48.732;10.266;2022-10-16T16:53:01;18.60;99.90
20594;DHT22;10455;48.732;10.266;2022-10-16T16:58:03;18.30;99.90
20594;DHT22;10455;48.732;10.266;2022-10-16T17:03:06;18.20;99.90
20594;DHT22;10455;48.732;10.266;2022-10-16T17:08:09;18.10;99.90
20594;DHT22;10455;48.732;10.266;2022-10-16T17:13:11;18.00;99.90
20594;DHT22;10455;48.732;10.266;2022-10-16T17:18:14;17.90;99.90
20594;DHT22;10455;48.732;10.266;2022-10-16T17:23:18;17.90;99.90
20594;DHT22;10455;48.732;10.266;2022-10-16T17:28:20;17.80;99.90
20594;DHT22;10455;48.732;10.266;2022-10-16T17:33:23;17.40;99.90
20594;DHT22;10455;48.732;10.266;2022-10-16T17:38:25;17.10;99.90
20594;DHT22;10455;48.732;10.266;2022-10-16T17:43:27;16.70;99.90
20594;DHT22;10455;48.732;10.266;2022-10-16T17:48:31;16.50;99.90
20594;DHT22;10455;48.732;10.266;2022-10-16T17:53:38;16.20;99.90
20594;DHT22;10455;48.732;10.266;2022-10-16T17:58:40;16.00;99.90
20594;DHT22;10455;48.732;10.266;2022-10-16T18:03:48;15.70;99.90
20594;DHT22;10455;48.732;10.266;2022-10-16T18:08:51;15.60;99.90
20594;DHT22;10455;48.732;10.266;2022-10-16T18:13:53;15.50;99.90
20594;DHT22;10455;48.732;10.266;2022-10-16T18:18:58;15.20;99.90
20594;DHT22;10455;48.732;10.266;2022-10-16T18:24:00;15.00;99.90
20594;DHT22;10455;48.732;10.266;2022-10-16T18:29:03;14.80;99.90
20594;DHT22;10455;48.732;10.266;2022-10-16T18:34:06;14.70;99.90
20594;DHT22;10455;48.732;10.266;2022-10-16T18:39:09;14.60;99.90
20594;DHT22;10455;48.732;10.266;2022-10-16T18:44:12;14.50;99.90
20594;DHT22;10455;48.732;10.266;2022-10-16T18:49:16;14.50;99.90
20594;DHT22;10455;48.732;10.266;2022-10-16T18:54:18;14.40;99.90
20594;DHT22;10455;48.732;10.266;2022-10-16T18:59:20;14.30;99.90
20594;DHT22;10455;48.732;10.266;2022-10-16T19:04:24;14.30;99.90
20594;DHT22;10455;48.732;10.266;2022-10-16T19:09:26;14.40;99.90
20594;DHT22;10455;48.732;10.266;2022-10-16T19:14:28;15.10;99.90
20594;DHT22;10455;48.732;10.266;2022-10-16T19:19:33;15.80;99.90
20594;DHT22;10455;48.732;10.266;2022-10-16T19:24:37;16.10;99.90
20594;DHT22;10455;48.732;10.266;2022-10-16T19:29:40;16.10;99.90
20594;DHT22;10455;48.732;10.266;2022-10-16T19:34:43;15.50;99.90
20594;DHT22;10455;48.732;10.266;2022-10-16T19:39:48;15.00;99.90
20594;DHT22;10455;48.732;10.266;2022-10-16T19:44:50;14.40;99.90
20594;DHT22;10455;48.732;10.266;2022-10-16T19:49:54;14.20;99.90
20594;DHT22;10455;48.732;10.266;2022-10-16T19:54:56;13.90;99.90
20594;DHT22;10455;48.732;10.266;2022-10-16T19:59:58;13.70;99.90
20594;DHT22;10455;48.732;10.266;2022-10-16T20:05:02;13.60;99.90
20594;DHT22;10455;48.732;10.266;2022-10-16T20:10:05;13.40;99.90
20594;DHT22;10455;48.732;10.266;2022-10-16T20:15:08;13.40;99.90
20594;DHT22;10455;48.732;10.266;2022-10-16T20:20:12;13.20;99.90
20594;DHT22;10455;48.732;10.266;2022-10-16T20:25:14;13.00;99.90
20594;DHT22;10455;48.732;10.266;2022-10-16T20:30:16;13.00;99.90
20594;DHT22;10455;48.732;10.266;2022-10-16T20:35:20;12.90;99.90
20594;DHT22;10455;48.732;10.266;2022-10-16T20:40:22;12.70;99.90
20594;DHT22;10455;48.732;10.266;2022-10-16T20:45:24;12.60;99.90
20594;DHT22;10455;48.732;10.266;2022-10-16T20:50:29;12.50;99.90
20594;DHT22;10455;48.732;10.266;2022-10-16T20:55:34;12.50;99.90
20594;DHT22;10455;48.732;10.266;2022-10-16T21:00:37;12.50;99.90
20594;DHT22;10455;48.732;10.266;2022-10-16T21:05:41;12.50;99.90
20594;DHT22;10455;48.732;10.266;2022-10-16T21:10:43;12.40;99.90
20594;DHT22;10455;48.732;10.266;2022-10-16T21:15:45;12.30;99.90
20594;DHT22;10455;48.732;10.266;2022-10-16T21:20:48;12.20;99.90
20594;DHT22;10455;48.732;10.266;2022-10-16T21:25:51;12.10;99.90
20594;DHT22;10455;48.732;10.266;2022-10-16T21:30:53;12.10;99.90
20594;DHT22;10455;48.732;10.266;2022-10-16T21:35:57;12.10;99.90
20594;DHT22;10455;48.732;10.266;2022-10-16T21:41:01;12.00;99.90
20594;DHT22;10455;48.732;10.266;2022-10-16T21:46:12;11.90;99.90
20594;DHT22;10455;48.732;10.266;2022-10-16T21:51:16;11.90;99.90
20594;DHT22;10455;48.732;10.266;2022-10-16T21:56:18;11.90;99.90
20594;DHT22;10455;48.732;10.266;2022-10-16T22:01:22;11.80;99.90
20594;DHT22;10455;48.732;10.266;2022-10-16T22:06:27;11.80;99.90
20594;DHT22;10455;48.732;10.266;2022-10-16T22:11:30;11.60;99.90
20594;DHT22;10455;48.732;10.266;2022-10-16T22:16:36;11.60;99.90
20594;DHT22;10455;48.732;10.266;2022-10-16T22:21:41;11.40;99.90
20594;DHT22;10455;48.732;10.266;2022-10-16T22:26:45;11.50;99.90
20594;DHT22;10455;48.732;10.266;2022-10-16T22:31:50;11.30;99.90
20594;DHT22;10455;48.732;10.266;2022-10-16T22:36:53;11.30;99.90
20594;DHT22;10455;48.732;10.266;2022-10-16T22:41:55;11.20;99.90
20594;DHT22;10455;48.732;10.266;2022-10-16T22:46:57;11.20;99.90
20594;DHT22;10455;48.732;10.266;2022-10-16T22:52:01;11.10;99.90
20594;DHT22;10455;48.732;10.266;2022-10-16T22:57:03;11.10;99.90
20594;DHT22;10455;48.732;10.266;2022-10-16T23:02:05;10.90;99.90
20594;DHT22;10455;48.732;10.266;2022-10-16T23:07:09;10.90;99.90
20594;DHT22;10455;48.732;10.266;2022-10-16T23:12:11;10.90;99.90
20594;DHT22;10455;48.732;10.266;2022-10-16T23:17:13;10.80;99.90
20594;DHT22;10455;48.732;10.266;2022-10-16T23:22:16;10.90;99.90
20594;DHT22;10455;48.732;10.266;2022-10-16T23:27:18;10.80;99.90
20594;DHT22;10455;48.732;10.266;2022-10-16T23:32:20;10.70;99.90
20594;DHT22;10455;48.732;10.266;2022-10-16T23:37:24;10.70;99.90
20594;DHT22;10455;48.732;10.266;2022-10-16T23:42:26;10.50;99.90
20594;DHT22;10455;48.732;10.266;2022-10-16T23:47:28;10.50;99.90
20594;DHT22;10455;48.732;10.266;2022-10-16T23:52:32;10.40;99.90
20594;DHT22;10455;48.732;10.266;2022-10-16T23:57:34;10.30;99.90
